sensor_id;sensor_type;location;lat;lon;timestamp;P1;durP1;ratioP1;P2;durP2;ratioP2
52248;SDS011;38541;48.130;8.378;2022-10-16T00:00:52;1.63;;;1.27;;
52248;SDS011;38541;48.130;8.378;2022-10-16T00:03:19;1.13;;;1.13;;
52248;SDS011;38541;48.130;8.378;2022-10-16T00:05:45;1.05;;;1.05;;
52248;SDS011;38541;48.130;8.378;2022-10-16T00:08:12;1.00;;;0.90;;
52248;SDS011;38541;48.130;8.378;2022-10-16T00:10:39;1.35;;;1.25;;
52248;SDS011;38541;48.130;8.378;2022-10-16T00:13:07;2.67;;;1.48;;
52248;SDS011;38541;48.130;8.378;2022-10-16T00:15:34;0.95;;;0.95;;
52248;SDS011;38541;48.130;8.378;2022-10-16T00:18:03;1.55;;;1.45;;
52248;SDS011;38541;48.130;8.378;2022-10-16T00:20:33;1.38;;;1.27;;
52248;SDS011;38541;48.130;8.378;2022-10-16T00:23:00;1.20;;;1.10;;
52248;SDS011;38541;48.130;8.378;2022-10-16T00:25:26;1.63;;;1.20;;
52248;SDS011;38541;48.130;8.378;2022-10-16T00:27:53;1.70;;;1.35;;
52248;SDS011;38541;48.130;8.378;2022-10-16T00:30:19;1.60;;;1.42;;
52248;SDS011;38541;48.130;8.378;2022-10-16T00:32:46;1.65;;;1.20;;
52248;SDS011;38541;48.130;8.378;2022-10-16T00:35:12;1.00;;;1.00;;
52248;SDS011;38541;48.130;8.378;2022-10-16T00:37:39;2.00;;;1.80;;
52248;SDS011;38541;48.130;8.378;2022-10-16T00:40:05;1.20;;;1.20;;
52248;SDS011;38541;48.130;8.378;2022-10-16T00:42:32;1.20;;;1.20;;
52248;SDS011;38541;48.130;8.378;2022-10-16T00:44:59;1.40;;;1.30;;
52248;SDS011;38541;48.130;8.378;2022-10-16T00:49:56;1.63;;;1.52;;
52248;SDS011;38541;48.130;8.378;2022-10-16T00:52:34;1.52;;;1.40;;
52248;SDS011;38541;48.130;8.378;2022-10-16T00:55:02;1.00;;;1.00;;
52248;SDS011;38541;48.130;8.378;2022-10-16T00:57:30;1.20;;;1.10;;
52248;SDS011;38541;48.130;8.378;2022-10-16T00:59:57;2.08;;;1.10;;
52248;SDS011;38541;48.130;8.378;2022-10-16T01:02:24;3.38;;;1.40;;
52248;SDS011;38541;48.130;8.378;2022-10-16T01:04:52;1.30;;;1.05;;
52248;SDS011;38541;48.130;8.378;2022-10-16T01:13:07;1.42;;;1.33;;
52248;SDS011;38541;48.130;8.378;2022-10-16T01:15:40;2.75;;;1.60;;
52248;SDS011;38541;48.130;8.378;2022-10-16T01:18:20;1.50;;;1.40;;
52248;SDS011;38541;48.130;8.378;2022-10-16T01:21:04;2.85;;;1.40;;
52248;SDS011;38541;48.130;8.378;2022-10-16T01:26:20;1.20;;;1.20;;
52248;SDS011;38541;48.130;8.378;2022-10-16T01:31:41;1.40;;;1.30;;
52248;SDS011;38541;48.130;8.378;2022-10-16T01:34:15;1.23;;;1.13;;
52248;SDS011;38541;48.130;8.378;2022-10-16T01:36:47;1.33;;;1.23;;
52248;SDS011;38541;48.130;8.378;2022-10-16T01:39:20;1.38;;;1.27;;
52248;SDS011;38541;48.130;8.378;2022-10-16T01:41:50;1.40;;;1.25;;
52248;SDS011;38541;48.130;8.378;2022-10-16T01:44:22;1.50;;;1.30;;
52248;SDS011;38541;48.130;8.378;2022-10-16T01:46:54;1.30;;;1.20;;
52248;SDS011;38541;48.130;8.378;2022-10-16T01:49:22;1.17;;;1.10;;
52248;SDS011;38541;48.130;8.378;2022-10-16T01:51:51;1.20;;;1.10;;
52248;SDS011;38541;48.130;8.378;2022-10-16T01:54:22;1.35;;;1.30;;
52248;SDS011;38541;48.130;8.378;2022-10-16T01:56:54;2.45;;;1.20;;
52248;SDS011;38541;48.130;8.378;2022-10-16T01:59:23;0.98;;;0.98;;
52248;SDS011;38541;48.130;8.378;2022-10-16T02:01:52;0.93;;;0.93;;
52248;SDS011;38541;48.130;8.378;2022-10-16T02:04:33;0.90;;;0.90;;
52248;SDS011;38541;48.130;8.378;2022-10-16T02:07:04;2.40;;;1.15;;
52248;SDS011;38541;48.130;8.378;2022-10-16T02:09:34;0.88;;;0.88;;
52248;SDS011;38541;48.130;8.378;2022-10-16T02:12:04;1.02;;;1.00;;
52248;SDS011;38541;48.130;8.378;2022-10-16T02:14:37;1.10;;;1.10;;
52248;SDS011;38541;48.130;8.378;2022-10-16T02:17:10;3.13;;;1.50;;
52248;SDS011;38541;48.130;8.378;2022-10-16T02:19:40;1.17;;;1.17;;
52248;SDS011;38541;48.130;8.378;2022-10-16T02:22:09;1.42;;;1.33;;
52248;SDS011;38541;48.130;8.378;2022-10-16T02:27:20;0.90;;;0.90;;
52248;SDS011;38541;48.130;8.378;2022-10-16T02:29:49;1.10;;;1.10;;
52248;SDS011;38541;48.130;8.378;2022-10-16T02:32:25;1.58;;;1.15;;
52248;SDS011;38541;48.130;8.378;2022-10-16T02:34:56;1.35;;;1.25;;
52248;SDS011;38541;48.130;8.378;2022-10-16T02:37:26;0.98;;;0.98;;
52248;SDS011;38541;48.130;8.378;2022-10-16T02:39:54;7.07;;;1.55;;
52248;SDS011;38541;48.130;8.378;2022-10-16T02:42:33;0.90;;;0.90;;
52248;SDS011;38541;48.130;8.378;2022-10-16T02:45:02;2.40;;;2.10;;
52248;SDS011;38541;48.130;8.378;2022-10-16T02:47:29;1.52;;;1.42;;
52248;SDS011;38541;48.130;8.378;2022-10-16T02:49:56;1.58;;;1.48;;
52248;SDS011;38541;48.130;8.378;2022-10-16T02:52:22;1.15;;;1.10;;
52248;SDS011;38541;48.130;8.378;2022-10-16T02:54:49;1.50;;;1.40;;
52248;SDS011;38541;48.130;8.378;2022-10-16T02:57:16;2.03;;;1.02;;
52248;SDS011;38541;48.130;8.378;2022-10-16T02:59:42;1.48;;;1.38;;
52248;SDS011;38541;48.130;8.378;2022-10-16T03:02:09;1.17;;;1.15;;
52248;SDS011;38541;48.130;8.378;2022-10-16T03:04:35;1.48;;;1.20;;
52248;SDS011;38541;48.130;8.378;2022-10-16T03:07:02;1.73;;;1.48;;
52248;SDS011;38541;48.130;8.378;2022-10-16T03:09:29;2.05;;;1.30;;
52248;SDS011;38541;48.130;8.378;2022-10-16T03:11:56;1.20;;;1.20;;
52248;SDS011;38541;48.130;8.378;2022-10-16T03:14:22;2.13;;;1.20;;
52248;SDS011;38541;48.130;8.378;2022-10-16T03:16:49;1.98;;;1.35;;
52248;SDS011;38541;48.130;8.378;2022-10-16T03:19:16;1.67;;;1.33;;
52248;SDS011;38541;48.130;8.378;2022-10-16T03:21:43;1.52;;;1.27;;
52248;SDS011;38541;48.130;8.378;2022-10-16T03:24:11;2.58;;;1.50;;
52248;SDS011;38541;48.130;8.378;2022-10-16T03:26:37;1.17;;;1.08;;
52248;SDS011;38541;48.130;8.378;2022-10-16T03:29:04;1.30;;;1.20;;
52248;SDS011;38541;48.130;8.378;2022-10-16T03:31:31;1.05;;;1.05;;
52248;SDS011;38541;48.130;8.378;2022-10-16T03:33:58;1.20;;;1.10;;
52248;SDS011;38541;48.130;8.378;2022-10-16T03:36:24;1.33;;;1.10;;
52248;SDS011;38541;48.130;8.378;2022-10-16T03:38:51;1.17;;;1.17;;
52248;SDS011;38541;48.130;8.378;2022-10-16T03:41:17;1.98;;;1.33;;
52248;SDS011;38541;48.130;8.378;2022-10-16T03:43:44;1.52;;;1.40;;
52248;SDS011;38541;48.130;8.378;2022-10-16T03:46:10;2.13;;;1.98;;
52248;SDS011;38541;48.130;8.378;2022-10-16T03:48:37;2.35;;;1.33;;
52248;SDS011;38541;48.130;8.378;2022-10-16T03:51:03;0.77;;;0.73;;
52248;SDS011;38541;48.130;8.378;2022-10-16T03:53:30;1.20;;;1.10;;
52248;SDS011;38541;48.130;8.378;2022-10-16T03:55:56;2.30;;;1.35;;
52248;SDS011;38541;48.130;8.378;2022-10-16T03:58:23;1.80;;;1.10;;
52248;SDS011;38541;48.130;8.378;2022-10-16T04:00:49;1.38;;;1.13;;
52248;SDS011;38541;48.130;8.378;2022-10-16T04:03:16;0.95;;;0.93;;
52248;SDS011;38541;48.130;8.378;2022-10-16T04:05:43;1.05;;;0.98;;
52248;SDS011;38541;48.130;8.378;2022-10-16T04:08:09;1.30;;;1.20;;
52248;SDS011;38541;48.130;8.378;2022-10-16T04:10:36;1.00;;;1.00;;
52248;SDS011;38541;48.130;8.378;2022-10-16T04:13:02;2.22;;;1.20;;
52248;SDS011;38541;48.130;8.378;2022-10-16T04:15:29;1.67;;;1.00;;
52248;SDS011;38541;48.130;8.378;2022-10-16T04:17:55;1.33;;;1.20;;
52248;SDS011;38541;48.130;8.378;2022-10-16T04:20:22;1.25;;;1.20;;
52248;SDS011;38541;48.130;8.378;2022-10-16T04:22:48;1.67;;;1.10;;
52248;SDS011;38541;48.130;8.378;2022-10-16T04:25:15;1.40;;;1.20;;
52248;SDS011;38541;48.130;8.378;2022-10-16T04:27:41;1.25;;;1.17;;
52248;SDS011;38541;48.130;8.378;2022-10-16T04:30:11;1.27;;;1.17;;
52248;SDS011;38541;48.130;8.378;2022-10-16T04:32:39;1.20;;;1.10;;
52248;SDS011;38541;48.130;8.378;2022-10-16T04:35:06;1.15;;;1.05;;
52248;SDS011;38541;48.130;8.378;2022-10-16T04:37:33;1.70;;;1.40;;
52248;SDS011;38541;48.130;8.378;2022-10-16T04:39:59;1.35;;;1.05;;
52248;SDS011;38541;48.130;8.378;2022-10-16T04:42:26;1.52;;;1.25;;
52248;SDS011;38541;48.130;8.378;2022-10-16T04:44:52;2.42;;;1.00;;
52248;SDS011;38541;48.130;8.378;2022-10-16T04:47:19;4.13;;;1.70;;
52248;SDS011;38541;48.130;8.378;2022-10-16T04:49:45;1.40;;;1.30;;
52248;SDS011;38541;48.130;8.378;2022-10-16T04:52:12;1.20;;;1.10;;
52248;SDS011;38541;48.130;8.378;2022-10-16T04:54:38;1.33;;;1.23;;
52248;SDS011;38541;48.130;8.378;2022-10-16T04:57:05;1.20;;;1.20;;
52248;SDS011;38541;48.130;8.378;2022-10-16T04:59:31;1.25;;;1.15;;
52248;SDS011;38541;48.130;8.378;2022-10-16T05:01:58;1.98;;;1.10;;
52248;SDS011;38541;48.130;8.378;2022-10-16T05:04:24;2.63;;;1.20;;
52248;SDS011;38541;48.130;8.378;2022-10-16T05:06:51;4.10;;;1.20;;
52248;SDS011;38541;48.130;8.378;2022-10-16T05:09:17;1.88;;;1.10;;
52248;SDS011;38541;48.130;8.378;2022-10-16T05:11:44;1.38;;;0.95;;
52248;SDS011;38541;48.130;8.378;2022-10-16T05:14:10;1.35;;;1.08;;
52248;SDS011;38541;48.130;8.378;2022-10-16T05:16:41;2.55;;;1.00;;
52248;SDS011;38541;48.130;8.378;2022-10-16T05:19:08;1.63;;;1.38;;
52248;SDS011;38541;48.130;8.378;2022-10-16T05:21:54;1.23;;;1.08;;
52248;SDS011;38541;48.130;8.378;2022-10-16T05:24:21;1.85;;;1.00;;
52248;SDS011;38541;48.130;8.378;2022-10-16T05:26:48;1.13;;;1.13;;
52248;SDS011;38541;48.130;8.378;2022-10-16T05:29:14;6.20;;;1.25;;
52248;SDS011;38541;48.130;8.378;2022-10-16T05:31:41;1.90;;;1.25;;
52248;SDS011;38541;48.130;8.378;2022-10-16T05:34:07;2.05;;;1.38;;
52248;SDS011;38541;48.130;8.378;2022-10-16T05:36:34;1.35;;;1.23;;
52248;SDS011;38541;48.130;8.378;2022-10-16T05:39:00;1.08;;;1.08;;
52248;SDS011;38541;48.130;8.378;2022-10-16T05:41:27;1.67;;;1.48;;
52248;SDS011;38541;48.130;8.378;2022-10-16T05:43:53;4.80;;;2.22;;
52248;SDS011;38541;48.130;8.378;2022-10-16T05:46:20;4.55;;;2.42;;
52248;SDS011;38541;48.130;8.378;2022-10-16T05:48:47;2.58;;;1.90;;
52248;SDS011;38541;48.130;8.378;2022-10-16T05:51:14;1.63;;;1.52;;
52248;SDS011;38541;48.130;8.378;2022-10-16T05:53:41;1.48;;;1.38;;
52248;SDS011;38541;48.130;8.378;2022-10-16T05:56:12;1.85;;;1.75;;
52248;SDS011;38541;48.130;8.378;2022-10-16T05:58:39;2.45;;;1.48;;
52248;SDS011;38541;48.130;8.378;2022-10-16T06:01:09;2.03;;;1.75;;
52248;SDS011;38541;48.130;8.378;2022-10-16T06:03:37;2.15;;;1.67;;
52248;SDS011;38541;48.130;8.378;2022-10-16T06:06:08;3.67;;;2.75;;
52248;SDS011;38541;48.130;8.378;2022-10-16T06:08:39;2.83;;;2.60;;
52248;SDS011;38541;48.130;8.378;2022-10-16T06:11:10;1.77;;;1.67;;
52248;SDS011;38541;48.130;8.378;2022-10-16T06:13:38;2.33;;;2.13;;
52248;SDS011;38541;48.130;8.378;2022-10-16T06:16:08;2.50;;;2.30;;
52248;SDS011;38541;48.130;8.378;2022-10-16T06:18:36;2.03;;;1.58;;
52248;SDS011;38541;48.130;8.378;2022-10-16T06:21:09;2.10;;;2.00;;
52248;SDS011;38541;48.130;8.378;2022-10-16T06:23:37;1.80;;;1.70;;
52248;SDS011;38541;48.130;8.378;2022-10-16T06:26:05;2.05;;;1.83;;
52248;SDS011;38541;48.130;8.378;2022-10-16T06:28:42;2.35;;;1.70;;
52248;SDS011;38541;48.130;8.378;2022-10-16T06:31:09;2.25;;;1.80;;
52248;SDS011;38541;48.130;8.378;2022-10-16T06:33:36;1.98;;;1.88;;
52248;SDS011;38541;48.130;8.378;2022-10-16T06:36:14;2.17;;;1.95;;
52248;SDS011;38541;48.130;8.378;2022-10-16T06:38:42;1.90;;;1.80;;
52248;SDS011;38541;48.130;8.378;2022-10-16T06:41:13;1.80;;;1.70;;
52248;SDS011;38541;48.130;8.378;2022-10-16T06:43:41;2.78;;;1.58;;
52248;SDS011;38541;48.130;8.378;2022-10-16T06:46:09;2.45;;;1.60;;
52248;SDS011;38541;48.130;8.378;2022-10-16T06:48:36;2.83;;;1.60;;
52248;SDS011;38541;48.130;8.378;2022-10-16T06:51:04;3.88;;;1.98;;
52248;SDS011;38541;48.130;8.378;2022-10-16T06:53:34;2.45;;;2.25;;
52248;SDS011;38541;48.130;8.378;2022-10-16T06:56:23;2.38;;;2.17;;
52248;SDS011;38541;48.130;8.378;2022-10-16T06:58:51;2.15;;;2.03;;
52248;SDS011;38541;48.130;8.378;2022-10-16T07:01:20;3.83;;;2.22;;
52248;SDS011;38541;48.130;8.378;2022-10-16T07:03:48;1.70;;;1.60;;
52248;SDS011;38541;48.130;8.378;2022-10-16T07:06:16;1.98;;;1.85;;
52248;SDS011;38541;48.130;8.378;2022-10-16T07:08:45;2.17;;;1.98;;
52248;SDS011;38541;48.130;8.378;2022-10-16T07:11:13;2.50;;;2.30;;
52248;SDS011;38541;48.130;8.378;2022-10-16T07:13:42;2.72;;;2.50;;
52248;SDS011;38541;48.130;8.378;2022-10-16T07:16:13;3.40;;;2.10;;
52248;SDS011;38541;48.130;8.378;2022-10-16T07:18:41;2.03;;;1.92;;
52248;SDS011;38541;48.130;8.378;2022-10-16T07:21:12;2.03;;;1.80;;
52248;SDS011;38541;48.130;8.378;2022-10-16T07:23:40;1.60;;;1.38;;
52248;SDS011;38541;48.130;8.378;2022-10-16T07:26:07;3.08;;;1.77;;
52248;SDS011;38541;48.130;8.378;2022-10-16T07:28:34;2.15;;;1.30;;
52248;SDS011;38541;48.130;8.378;2022-10-16T07:31:02;1.65;;;1.55;;
52248;SDS011;38541;48.130;8.378;2022-10-16T07:33:31;1.70;;;1.60;;
52248;SDS011;38541;48.130;8.378;2022-10-16T07:35:58;1.48;;;1.38;;
52248;SDS011;38541;48.130;8.378;2022-10-16T07:38:25;1.60;;;1.50;;
52248;SDS011;38541;48.130;8.378;2022-10-16T07:41:01;1.50;;;1.40;;
52248;SDS011;38541;48.130;8.378;2022-10-16T07:43:30;1.40;;;1.30;;
52248;SDS011;38541;48.130;8.378;2022-10-16T07:45:57;2.95;;;1.63;;
52248;SDS011;38541;48.130;8.378;2022-10-16T07:48:30;1.65;;;1.52;;
52248;SDS011;38541;48.130;8.378;2022-10-16T07:51:02;1.60;;;1.50;;
52248;SDS011;38541;48.130;8.378;2022-10-16T07:53:31;2.95;;;1.45;;
52248;SDS011;38541;48.130;8.378;2022-10-16T07:55:59;1.75;;;1.23;;
52248;SDS011;38541;48.130;8.378;2022-10-16T07:58:26;1.60;;;1.20;;
52248;SDS011;38541;48.130;8.378;2022-10-16T08:00:54;1.15;;;1.10;;
52248;SDS011;38541;48.130;8.378;2022-10-16T08:03:21;1.30;;;1.08;;
52248;SDS011;38541;48.130;8.378;2022-10-16T08:05:48;1.60;;;1.50;;
52248;SDS011;38541;48.130;8.378;2022-10-16T08:08:15;1.45;;;1.05;;
52248;SDS011;38541;48.130;8.378;2022-10-16T08:10:42;1.00;;;1.00;;
52248;SDS011;38541;48.130;8.378;2022-10-16T08:13:09;1.63;;;1.08;;
52248;SDS011;38541;48.130;8.378;2022-10-16T08:15:36;2.28;;;1.00;;
52248;SDS011;38541;48.130;8.378;2022-10-16T08:18:03;1.23;;;1.08;;
52248;SDS011;38541;48.130;8.378;2022-10-16T08:20:31;1.05;;;1.00;;
52248;SDS011;38541;48.130;8.378;2022-10-16T08:22:58;2.97;;;1.30;;
52248;SDS011;38541;48.130;8.378;2022-10-16T08:25:25;0.90;;;0.90;;
52248;SDS011;38541;48.130;8.378;2022-10-16T08:27:52;1.65;;;0.77;;
52248;SDS011;38541;48.130;8.378;2022-10-16T08:30:19;2.30;;;1.33;;
52248;SDS011;38541;48.130;8.378;2022-10-16T08:32:47;1.20;;;1.10;;
52248;SDS011;38541;48.130;8.378;2022-10-16T08:35:14;1.67;;;0.90;;
52248;SDS011;38541;48.130;8.378;2022-10-16T08:37:41;0.88;;;0.88;;
52248;SDS011;38541;48.130;8.378;2022-10-16T08:40:23;2.35;;;1.75;;
52248;SDS011;38541;48.130;8.378;2022-10-16T08:48:43;1.95;;;0.95;;
52248;SDS011;38541;48.130;8.378;2022-10-16T08:51:17;1.17;;;1.08;;
52248;SDS011;38541;48.130;8.378;2022-10-16T08:53:51;1.48;;;0.90;;
52248;SDS011;38541;48.130;8.378;2022-10-16T08:56:21;2.03;;;1.25;;
52248;SDS011;38541;48.130;8.378;2022-10-16T08:58:49;1.20;;;1.10;;
52248;SDS011;38541;48.130;8.378;2022-10-16T09:01:21;2.13;;;1.25;;
52248;SDS011;38541;48.130;8.378;2022-10-16T09:15:32;2.97;;;1.13;;
52248;SDS011;38541;48.130;8.378;2022-10-16T09:21:24;1.00;;;0.90;;
52248;SDS011;38541;48.130;8.378;2022-10-16T09:23:57;1.25;;;0.93;;
52248;SDS011;38541;48.130;8.378;2022-10-16T09:26:25;0.93;;;0.93;;
52248;SDS011;38541;48.130;8.378;2022-10-16T09:28:52;0.90;;;0.90;;
52248;SDS011;38541;48.130;8.378;2022-10-16T09:31:20;1.00;;;0.90;;
52248;SDS011;38541;48.130;8.378;2022-10-16T09:33:50;1.15;;;0.73;;
52248;SDS011;38541;48.130;8.378;2022-10-16T09:36:36;2.20;;;0.98;;
52248;SDS011;38541;48.130;8.378;2022-10-16T09:39:08;1.48;;;0.80;;
52248;SDS011;38541;48.130;8.378;2022-10-16T09:41:39;1.08;;;1.08;;
52248;SDS011;38541;48.130;8.378;2022-10-16T09:44:46;1.50;;;1.40;;
52248;SDS011;38541;48.130;8.378;2022-10-16T09:49:30;1.45;;;1.35;;
52248;SDS011;38541;48.130;8.378;2022-10-16T09:52:12;1.15;;;1.05;;
52248;SDS011;38541;48.130;8.378;2022-10-16T09:54:57;1.77;;;1.10;;
52248;SDS011;38541;48.130;8.378;2022-10-16T09:57:25;2.63;;;1.08;;
52248;SDS011;38541;48.130;8.378;2022-10-16T09:59:54;2.38;;;1.20;;
52248;SDS011;38541;48.130;8.378;2022-10-16T10:02:33;2.15;;;1.10;;
52248;SDS011;38541;48.130;8.378;2022-10-16T10:05:02;2.40;;;1.52;;
52248;SDS011;38541;48.130;8.378;2022-10-16T10:07:33;1.27;;;1.17;;
52248;SDS011;38541;48.130;8.378;2022-10-16T10:10:06;1.40;;;1.30;;
52248;SDS011;38541;48.130;8.378;2022-10-16T10:12:45;1.23;;;1.10;;
52248;SDS011;38541;48.130;8.378;2022-10-16T10:15:12;1.38;;;1.27;;
52248;SDS011;38541;48.130;8.378;2022-10-16T10:17:55;1.58;;;1.17;;
52248;SDS011;38541;48.130;8.378;2022-10-16T10:23:19;1.10;;;1.10;;
52248;SDS011;38541;48.130;8.378;2022-10-16T10:28:45;3.85;;;2.20;;
52248;SDS011;38541;48.130;8.378;2022-10-16T10:33:57;1.67;;;1.13;;
52248;SDS011;38541;48.130;8.378;2022-10-16T10:39:12;1.42;;;0.73;;
52248;SDS011;38541;48.130;8.378;2022-10-16T10:47:37;1.15;;;1.00;;
52248;SDS011;38541;48.130;8.378;2022-10-16T10:50:25;1.95;;;0.90;;
52248;SDS011;38541;48.130;8.378;2022-10-16T10:52:59;1.25;;;1.05;;
52248;SDS011;38541;48.130;8.378;2022-10-16T10:58:21;1.45;;;0.95;;
52248;SDS011;38541;48.130;8.378;2022-10-16T11:03:46;1.15;;;1.13;;
52248;SDS011;38541;48.130;8.378;2022-10-16T11:06:31;0.80;;;0.80;;
52248;SDS011;38541;48.130;8.378;2022-10-16T11:09:10;1.23;;;1.02;;
52248;SDS011;38541;48.130;8.378;2022-10-16T11:11:45;0.88;;;0.88;;
52248;SDS011;38541;48.130;8.378;2022-10-16T11:14:19;0.90;;;0.90;;
52248;SDS011;38541;48.130;8.378;2022-10-16T11:19:59;0.90;;;0.90;;
52248;SDS011;38541;48.130;8.378;2022-10-16T11:22:32;0.80;;;0.80;;
52248;SDS011;38541;48.130;8.378;2022-10-16T11:25:04;0.73;;;0.73;;
52248;SDS011;38541;48.130;8.378;2022-10-16T11:30:18;0.80;;;0.80;;
52248;SDS011;38541;48.130;8.378;2022-10-16T11:35:44;0.65;;;0.65;;
52248;SDS011;38541;48.130;8.378;2022-10-16T11:41:10;2.80;;;2.17;;
52248;SDS011;38541;48.130;8.378;2022-10-16T11:43:48;0.90;;;0.90;;
52248;SDS011;38541;48.130;8.378;2022-10-16T11:46:22;1.00;;;0.73;;
52248;SDS011;38541;48.130;8.378;2022-10-16T11:48:54;1.10;;;0.90;;
52248;SDS011;38541;48.130;8.378;2022-10-16T11:51:48;1.17;;;0.90;;
52248;SDS011;38541;48.130;8.378;2022-10-16T11:57:09;0.90;;;0.90;;
52248;SDS011;38541;48.130;8.378;2022-10-16T12:05:22;0.80;;;0.80;;
52248;SDS011;38541;48.130;8.378;2022-10-16T12:10:35;0.82;;;0.82;;
52248;SDS011;38541;48.130;8.378;2022-10-16T12:13:04;0.90;;;0.80;;
52248;SDS011;38541;48.130;8.378;2022-10-16T12:15:51;1.67;;;1.25;;
52248;SDS011;38541;48.130;8.378;2022-10-16T12:18:25;1.20;;;1.10;;
52248;SDS011;38541;48.130;8.378;2022-10-16T12:20:57;1.00;;;0.80;;
52248;SDS011;38541;48.130;8.378;2022-10-16T12:23:30;0.95;;;0.93;;
52248;SDS011;38541;48.130;8.378;2022-10-16T12:25:59;4.78;;;1.15;;
52248;SDS011;38541;48.130;8.378;2022-10-16T12:28:29;0.90;;;0.90;;
52248;SDS011;38541;48.130;8.378;2022-10-16T12:31:01;1.05;;;0.98;;
52248;SDS011;38541;48.130;8.378;2022-10-16T12:33:33;5.37;;;0.90;;
52248;SDS011;38541;48.130;8.378;2022-10-16T12:36:05;1.52;;;0.88;;
52248;SDS011;38541;48.130;8.378;2022-10-16T12:38:49;1.60;;;0.90;;
52248;SDS011;38541;48.130;8.378;2022-10-16T12:41:33;1.33;;;1.25;;
52248;SDS011;38541;48.130;8.378;2022-10-16T12:44:02;0.95;;;0.93;;
52248;SDS011;38541;48.130;8.378;2022-10-16T12:51:54;1.10;;;1.10;;
52248;SDS011;38541;48.130;8.378;2022-10-16T12:54:23;1.00;;;0.90;;
52248;SDS011;38541;48.130;8.378;2022-10-16T12:59:57;0.90;;;0.90;;
52248;SDS011;38541;48.130;8.378;2022-10-16T13:11:49;1.23;;;0.90;;
52248;SDS011;38541;48.130;8.378;2022-10-16T13:17:21;0.80;;;0.80;;
52248;SDS011;38541;48.130;8.378;2022-10-16T13:23:35;1.10;;;1.00;;
52248;SDS011;38541;48.130;8.378;2022-10-16T13:26:07;0.90;;;0.90;;
52248;SDS011;38541;48.130;8.378;2022-10-16T13:28:47;1.35;;;0.70;;
52248;SDS011;38541;48.130;8.378;2022-10-16T13:31:20;0.68;;;0.68;;
52248;SDS011;38541;48.130;8.378;2022-10-16T13:33:54;3.38;;;0.90;;
52248;SDS011;38541;48.130;8.378;2022-10-16T13:36:29;0.93;;;0.90;;
52248;SDS011;38541;48.130;8.378;2022-10-16T13:39:20;0.80;;;0.80;;
52248;SDS011;38541;48.130;8.378;2022-10-16T13:42:02;0.80;;;0.80;;
52248;SDS011;38541;48.130;8.378;2022-10-16T13:44:44;1.95;;;0.88;;
52248;SDS011;38541;48.130;8.378;2022-10-16T13:47:15;0.95;;;0.82;;
52248;SDS011;38541;48.130;8.378;2022-10-16T13:49:44;0.88;;;0.88;;
52248;SDS011;38541;48.130;8.378;2022-10-16T13:52:20;3.17;;;0.73;;
52248;SDS011;38541;48.130;8.378;2022-10-16T13:54:47;0.95;;;0.80;;
52248;SDS011;38541;48.130;8.378;2022-10-16T13:57:14;1.05;;;0.80;;
52248;SDS011;38541;48.130;8.378;2022-10-16T13:59:52;0.80;;;0.80;;
52248;SDS011;38541;48.130;8.378;2022-10-16T14:04:53;1.20;;;0.80;;
52248;SDS011;38541;48.130;8.378;2022-10-16T14:07:24;1.05;;;0.95;;
52248;SDS011;38541;48.130;8.378;2022-10-16T14:09:53;0.65;;;0.65;;
52248;SDS011;38541;48.130;8.378;2022-10-16T14:12:21;1.20;;;1.17;;
52248;SDS011;38541;48.130;8.378;2022-10-16T14:14:53;1.20;;;0.73;;
52248;SDS011;38541;48.130;8.378;2022-10-16T14:17:23;1.15;;;0.80;;
52248;SDS011;38541;48.130;8.378;2022-10-16T14:19:53;0.80;;;0.80;;
52248;SDS011;38541;48.130;8.378;2022-10-16T14:22:29;1.10;;;0.70;;
52248;SDS011;38541;48.130;8.378;2022-10-16T14:27:44;2.08;;;0.80;;
52248;SDS011;38541;48.130;8.378;2022-10-16T14:30:16;0.70;;;0.70;;
52248;SDS011;38541;48.130;8.378;2022-10-16T14:32:53;0.90;;;0.80;;
52248;SDS011;38541;48.130;8.378;2022-10-16T14:35:29;2.55;;;0.65;;
52248;SDS011;38541;48.130;8.378;2022-10-16T14:37:58;0.70;;;0.70;;
52248;SDS011;38541;48.130;8.378;2022-10-16T14:40:33;0.70;;;0.70;;
52248;SDS011;38541;48.130;8.378;2022-10-16T14:43:02;1.58;;;0.70;;
52248;SDS011;38541;48.130;8.378;2022-10-16T14:45:32;1.42;;;0.77;;
52248;SDS011;38541;48.130;8.378;2022-10-16T14:48:01;1.98;;;0.77;;
52248;SDS011;38541;48.130;8.378;2022-10-16T14:50:31;0.75;;;0.75;;
52248;SDS011;38541;48.130;8.378;2022-10-16T14:52:58;1.75;;;0.88;;
52248;SDS011;38541;48.130;8.378;2022-10-16T14:55:25;0.70;;;0.70;;
52248;SDS011;38541;48.130;8.378;2022-10-16T14:57:52;0.68;;;0.60;;
52248;SDS011;38541;48.130;8.378;2022-10-16T15:00:25;1.48;;;0.80;;
52248;SDS011;38541;48.130;8.378;2022-10-16T15:02:51;1.40;;;0.50;;
52248;SDS011;38541;48.130;8.378;2022-10-16T15:05:19;0.73;;;0.73;;
52248;SDS011;38541;48.130;8.378;2022-10-16T15:07:48;0.85;;;0.63;;
52248;SDS011;38541;48.130;8.378;2022-10-16T15:10:16;1.65;;;1.05;;
52248;SDS011;38541;48.130;8.378;2022-10-16T15:12:43;0.68;;;0.68;;
52248;SDS011;38541;48.130;8.378;2022-10-16T15:15:32;1.25;;;0.60;;
52248;SDS011;38541;48.130;8.378;2022-10-16T15:18:04;0.73;;;0.55;;
52248;SDS011;38541;48.130;8.378;2022-10-16T15:20:35;0.70;;;0.70;;
52248;SDS011;38541;48.130;8.378;2022-10-16T15:23:04;0.73;;;0.73;;
52248;SDS011;38541;48.130;8.378;2022-10-16T15:28:08;0.77;;;0.77;;
52248;SDS011;38541;48.130;8.378;2022-10-16T15:30:36;0.82;;;0.82;;
52248;SDS011;38541;48.130;8.378;2022-10-16T15:33:04;0.90;;;0.80;;
52248;SDS011;38541;48.130;8.378;2022-10-16T15:35:35;0.75;;;0.70;;
52248;SDS011;38541;48.130;8.378;2022-10-16T15:38:02;0.77;;;0.75;;
52248;SDS011;38541;48.130;8.378;2022-10-16T15:40:28;0.73;;;0.73;;
52248;SDS011;38541;48.130;8.378;2022-10-16T15:42:55;0.70;;;0.70;;
52248;SDS011;38541;48.130;8.378;2022-10-16T15:45:22;0.70;;;0.50;;
52248;SDS011;38541;48.130;8.378;2022-10-16T15:47:48;1.00;;;0.90;;
52248;SDS011;38541;48.130;8.378;2022-10-16T15:50:15;0.90;;;0.90;;
52248;SDS011;38541;48.130;8.378;2022-10-16T15:52:42;1.48;;;0.80;;
52248;SDS011;38541;48.130;8.378;2022-10-16T15:55:09;1.15;;;0.70;;
52248;SDS011;38541;48.130;8.378;2022-10-16T15:57:37;1.38;;;0.90;;
52248;SDS011;38541;48.130;8.378;2022-10-16T16:00:07;3.50;;;0.82;;
52248;SDS011;38541;48.130;8.378;2022-10-16T16:02:39;0.80;;;0.80;;
52248;SDS011;38541;48.130;8.378;2022-10-16T16:05:07;1.10;;;1.00;;
52248;SDS011;38541;48.130;8.378;2022-10-16T16:07:35;0.70;;;0.70;;
52248;SDS011;38541;48.130;8.378;2022-10-16T16:10:04;0.70;;;0.70;;
52248;SDS011;38541;48.130;8.378;2022-10-16T16:12:32;0.88;;;0.70;;
52248;SDS011;38541;48.130;8.378;2022-10-16T16:14:59;2.45;;;0.95;;
52248;SDS011;38541;48.130;8.378;2022-10-16T16:17:31;0.80;;;0.80;;
52248;SDS011;38541;48.130;8.378;2022-10-16T16:19:58;1.30;;;0.70;;
52248;SDS011;38541;48.130;8.378;2022-10-16T16:22:25;0.63;;;0.60;;
52248;SDS011;38541;48.130;8.378;2022-10-16T16:24:52;0.73;;;0.70;;
52248;SDS011;38541;48.130;8.378;2022-10-16T16:27:19;1.65;;;0.77;;
52248;SDS011;38541;48.130;8.378;2022-10-16T16:29:51;2.50;;;1.30;;
52248;SDS011;38541;48.130;8.378;2022-10-16T16:32:18;3.72;;;2.03;;
52248;SDS011;38541;48.130;8.378;2022-10-16T16:34:45;1.33;;;1.23;;
52248;SDS011;38541;48.130;8.378;2022-10-16T16:37:11;1.25;;;1.13;;
52248;SDS011;38541;48.130;8.378;2022-10-16T16:39:38;1.77;;;1.10;;
52248;SDS011;38541;48.130;8.378;2022-10-16T16:42:04;3.88;;;0.80;;
52248;SDS011;38541;48.130;8.378;2022-10-16T16:44:33;3.72;;;1.27;;
52248;SDS011;38541;48.130;8.378;2022-10-16T16:47:02;0.90;;;0.90;;
52248;SDS011;38541;48.130;8.378;2022-10-16T16:49:30;1.20;;;1.10;;
52248;SDS011;38541;48.130;8.378;2022-10-16T16:51:56;4.53;;;1.08;;
52248;SDS011;38541;48.130;8.378;2022-10-16T16:54:23;2.92;;;0.95;;
52248;SDS011;38541;48.130;8.378;2022-10-16T16:56:50;0.82;;;0.82;;
52248;SDS011;38541;48.130;8.378;2022-10-16T16:59:17;1.10;;;1.00;;
52248;SDS011;38541;48.130;8.378;2022-10-16T17:01:46;1.80;;;1.52;;